sensor_id;sensor_type;location;lat;lon;timestamp;pressure;altitude;pressure_sealevel;temperature;humidity
25232;BME280;13176;51.140;6.290;2022-12-07T00:01:32;101091.16;;;8.17;87.73
25232;BME280;13176;51.140;6.290;2022-12-07T00:04:01;101093.69;;;8.09;88.60
25232;BME280;13176;51.140;6.290;2022-12-07T00:06:42;101063.41;;;8.14;87.92
25232;BME280;13176;51.140;6.290;2022-12-07T00:09:12;101032.19;;;8.08;86.53
25232;BME280;13176;51.140;6.290;2022-12-07T00:11:38;101053.84;;;8.07;87.29
25232;BME280;13176;51.140;6.290;2022-12-07T00:14:09;101086.84;;;8.23;87.87
25232;BME280;13176;51.140;6.290;2022-12-07T00:16:36;101081.63;;;8.20;86.94
25232;BME280;13176;51.140;6.290;2022-12-07T00:19:03;101001.00;;;7.89;86.33
25232;BME280;13176;51.140;6.290;2022-12-07T00:21:35;101046.06;;;8.07;86.17
25232;BME280;13176;51.140;6.290;2022-12-07T00:24:03;100982.81;;;7.77;85.73
25232;BME280;13176;51.140;6.290;2022-12-07T00:26:35;101045.13;;;7.82;87.52
25232;BME280;13176;51.140;6.290;2022-12-07T00:29:15;101050.38;;;8.04;86.51
25232;BME280;13176;51.140;6.290;2022-12-07T00:31:42;101067.72;;;8.12;86.66
25232;BME280;13176;51.140;6.290;2022-12-07T00:34:13;101057.31;;;8.12;86.03
25232;BME280;13176;51.140;6.290;2022-12-07T00:36:40;101064.22;;;8.04;86.67
25232;BME280;13176;51.140;6.290;2022-12-07T00:39:06;101044.34;;;8.00;86.60
25232;BME280;13176;51.140;6.290;2022-12-07T00:41:33;100975.00;;;7.71;85.89
25232;BME280;13176;51.140;6.290;2022-12-07T00:43:59;101053.91;;;8.16;86.00
25232;BME280;13176;51.140;6.290;2022-12-07T00:46:26;100981.06;;;7.75;85.85
25232;BME280;13176;51.140;6.290;2022-12-07T00:48:53;101026.09;;;7.86;87.46
25232;BME280;13176;51.140;6.290;2022-12-07T00:51:22;100977.56;;;7.70;86.21
25232;BME280;13176;51.140;6.290;2022-12-07T00:53:49;101095.50;;;8.22;87.14
25232;BME280;13176;51.140;6.290;2022-12-07T00:56:21;101073.84;;;8.17;86.50
25232;BME280;13176;51.140;6.290;2022-12-07T00:58:59;101073.84;;;8.17;87.14
25232;BME280;13176;51.140;6.290;2022-12-07T01:01:28;101078.19;;;8.21;86.79
25232;BME280;13176;51.140;6.290;2022-12-07T01:03:55;101049.59;;;8.21;86.06
25232;BME280;13176;51.140;6.290;2022-12-07T01:06:23;101070.38;;;8.32;86.52
25232;BME280;13176;51.140;6.290;2022-12-07T01:08:50;101070.38;;;8.27;86.36
25232;BME280;13176;51.140;6.290;2022-12-07T01:11:18;100970.66;;;7.69;85.68
25232;BME280;13176;51.140;6.290;2022-12-07T01:13:45;101055.66;;;8.26;85.37
25232;BME280;13176;51.140;6.290;2022-12-07T01:16:14;101077.31;;;8.40;85.74
25232;BME280;13176;51.140;6.290;2022-12-07T01:18:42;101031.34;;;8.15;85.71
25232;BME280;13176;51.140;6.290;2022-12-07T01:21:14;101037.44;;;8.28;85.23
25232;BME280;13176;51.140;6.290;2022-12-07T01:23:42;101078.22;;;8.44;85.31
25232;BME280;13176;51.140;6.290;2022-12-07T01:26:11;101056.53;;;8.28;85.89
25232;BME280;13176;51.140;6.290;2022-12-07T01:28:39;101067.78;;;8.39;85.83
25232;BME280;13176;51.140;6.290;2022-12-07T01:31:25;101045.19;;;8.11;86.78
25232;BME280;13176;51.140;6.290;2022-12-07T01:33:54;101012.28;;;8.07;85.71
25232;BME280;13176;51.140;6.290;2022-12-07T01:38:51;101053.94;;;8.18;86.63
25232;BME280;13176;51.140;6.290;2022-12-07T01:41:20;100993.19;;;7.85;86.25
25232;BME280;13176;51.140;6.290;2022-12-07T01:44:16;101076.44;;;8.41;85.87
25232;BME280;13176;51.140;6.290;2022-12-07T01:46:50;101078.19;;;8.38;86.20
25232;BME280;13176;51.140;6.290;2022-12-07T01:49:37;101079.06;;;8.34;86.59
25232;BME280;13176;51.140;6.290;2022-12-07T01:52:20;101055.66;;;8.20;86.37
25232;BME280;13176;51.140;6.290;2022-12-07T01:54:51;101007.06;;;8.07;85.27
25232;BME280;13176;51.140;6.290;2022-12-07T01:57:19;101016.63;;;8.16;85.32
25232;BME280;13176;51.140;6.290;2022-12-07T01:59:48;101041.81;;;8.30;85.36
25232;BME280;13176;51.140;6.290;2022-12-07T02:02:26;101005.34;;;8.03;85.53
25232;BME280;13176;51.140;6.290;2022-12-07T02:04:55;101027.00;;;8.08;85.60
25232;BME280;13176;51.140;6.290;2022-12-07T02:07:23;101067.78;;;8.24;86.60
25232;BME280;13176;51.140;6.290;2022-12-07T02:09:50;101022.69;;;8.09;85.92
25232;BME280;13176;51.140;6.290;2022-12-07T02:12:16;101053.94;;;8.28;86.13
25232;BME280;13176;51.140;6.290;2022-12-07T02:14:43;101053.91;;;8.22;85.58
25232;BME280;13176;51.140;6.290;2022-12-07T02:17:22;101056.53;;;8.31;85.35
25232;BME280;13176;51.140;6.290;2022-12-07T02:28:29;101062.53;;;8.15;87.32
25232;BME280;13176;51.140;6.290;2022-12-07T02:31:02;100968.94;;;7.65;86.69
25232;BME280;13176;51.140;6.290;2022-12-07T02:33:50;101013.16;;;8.02;86.46
25232;BME280;13176;51.140;6.290;2022-12-07T02:36:27;101039.16;;;8.14;86.04
25232;BME280;13176;51.140;6.290;2022-12-07T02:41:44;101040.06;;;8.20;87.19
25232;BME280;13176;51.140;6.290;2022-12-07T02:44:15;101014.00;;;8.02;87.40
25232;BME280;13176;51.140;6.290;2022-12-07T02:46:49;101053.94;;;8.25;86.81
25232;BME280;13176;51.140;6.290;2022-12-07T02:49:17;100878.88;;;7.32;86.57
25232;BME280;13176;51.140;6.290;2022-12-07T02:51:46;100920.47;;;7.58;85.81
25232;BME280;13176;51.140;6.290;2022-12-07T02:54:17;101031.41;;;8.24;86.23
25232;BME280;13176;51.140;6.290;2022-12-07T03:08:09;101053.06;;;8.26;86.96
25232;BME280;13176;51.140;6.290;2022-12-07T03:16:19;101059.13;;;8.40;86.71
25232;BME280;13176;51.140;6.290;2022-12-07T03:18:53;101028.75;;;8.12;86.70
25232;BME280;13176;51.140;6.290;2022-12-07T03:21:29;101047.81;;;8.10;87.91
25232;BME280;13176;51.140;6.290;2022-12-07T03:24:00;101048.66;;;8.07;88.38
25232;BME280;13176;51.140;6.290;2022-12-07T03:26:36;101045.19;;;8.08;87.68
25232;BME280;13176;51.140;6.290;2022-12-07T03:29:09;101031.34;;;8.15;87.08
25232;BME280;13176;51.140;6.290;2022-12-07T03:31:41;101055.66;;;8.41;86.31
25232;BME280;13176;51.140;6.290;2022-12-07T03:34:14;101046.16;;;8.37;86.81
25232;BME280;13176;51.140;6.290;2022-12-07T03:36:47;101053.84;;;8.07;87.95
25232;BME280;13176;51.140;6.290;2022-12-07T03:39:37;101050.47;;;8.34;86.56
25232;BME280;13176;51.140;6.290;2022-12-07T03:42:08;101027.03;;;8.13;86.64
25232;BME280;13176;51.140;6.290;2022-12-07T03:44:36;101012.28;;;8.07;86.27
25232;BME280;13176;51.140;6.290;2022-12-07T03:47:26;101016.63;;;8.07;86.17
25232;BME280;13176;51.140;6.290;2022-12-07T03:49:58;100966.34;;;7.84;85.84
25232;BME280;13176;51.140;6.290;2022-12-07T03:52:42;101038.34;;;8.34;85.70
25232;BME280;13176;51.140;6.290;2022-12-07T03:55:17;101033.13;;;8.27;85.42
25232;BME280;13176;51.140;6.290;2022-12-07T03:57:47;101034.84;;;8.17;86.18
25232;BME280;13176;51.140;6.290;2022-12-07T04:00:15;100918.72;;;7.51;85.63
25232;BME280;13176;51.140;6.290;2022-12-07T04:02:42;101038.25;;;8.04;86.94
25232;BME280;13176;51.140;6.290;2022-12-07T04:05:10;101026.16;;;8.00;87.07
25232;BME280;13176;51.140;6.290;2022-12-07T04:07:36;101030.47;;;8.04;86.61
25232;BME280;13176;51.140;6.290;2022-12-07T04:10:04;101002.69;;;7.69;87.65
25232;BME280;13176;51.140;6.290;2022-12-07T04:12:31;100940.28;;;7.38;86.91
25232;BME280;13176;51.140;6.290;2022-12-07T04:14:57;100974.06;;;7.47;87.48
25232;BME280;13176;51.140;6.290;2022-12-07T04:17:23;101019.19;;;7.88;86.94
25232;BME280;13176;51.140;6.290;2022-12-07T04:19:50;100929.88;;;7.23;85.71
25232;BME280;13176;51.140;6.290;2022-12-07T04:22:16;100966.22;;;7.26;87.38
25232;BME280;13176;51.140;6.290;2022-12-07T04:24:43;101038.22;;;7.84;86.20
25232;BME280;13176;51.140;6.290;2022-12-07T04:27:09;100951.53;;;7.34;86.55
25232;BME280;13176;51.140;6.290;2022-12-07T04:29:36;101038.28;;;7.98;85.55
25232;BME280;13176;51.140;6.290;2022-12-07T04:32:02;101019.16;;;7.77;86.84
25232;BME280;13176;51.140;6.290;2022-12-07T04:34:29;101007.06;;;7.89;85.82
25232;BME280;13176;51.140;6.290;2022-12-07T04:36:55;100880.53;;;7.08;86.54
25232;BME280;13176;51.140;6.290;2022-12-07T04:39:28;101030.47;;;8.04;85.99
25232;BME280;13176;51.140;6.290;2022-12-07T04:41:55;101007.06;;;8.01;85.42
25232;BME280;13176;51.140;6.290;2022-12-07T04:44:22;101031.41;;;8.33;84.94
25232;BME280;13176;51.140;6.290;2022-12-07T04:46:50;101017.47;;;8.13;85.18
25232;BME280;13176;51.140;6.290;2022-12-07T04:49:17;101038.31;;;8.22;85.72
25232;BME280;13176;51.140;6.290;2022-12-07T04:51:44;100977.63;;;7.88;85.54
25232;BME280;13176;51.140;6.290;2022-12-07T04:54:12;101008.81;;;8.14;85.44
25232;BME280;13176;51.140;6.290;2022-12-07T04:56:39;101047.88;;;8.32;85.36
25232;BME280;13176;51.140;6.290;2022-12-07T04:59:06;101022.72;;;8.19;84.92
25232;BME280;13176;51.140;6.290;2022-12-07T05:01:33;101036.63;;;8.33;85.01
25232;BME280;13176;51.140;6.290;2022-12-07T05:03:59;100956.00;;;7.97;84.73
25232;BME280;13176;51.140;6.290;2022-12-07T05:06:26;100872.84;;;7.47;84.91
25232;BME280;13176;51.140;6.290;2022-12-07T05:08:54;100955.06;;;7.69;86.21
25232;BME280;13176;51.140;6.290;2022-12-07T05:11:21;100940.31;;;7.51;86.04
25232;BME280;13176;51.140;6.290;2022-12-07T05:14:18;100950.78;;;7.90;85.06
25232;BME280;13176;51.140;6.290;2022-12-07T05:16:47;101039.19;;;8.35;85.23
25232;BME280;13176;51.140;6.290;2022-12-07T05:19:15;100931.69;;;7.54;85.56
25232;BME280;13176;51.140;6.290;2022-12-07T05:21:42;101027.94;;;8.22;85.45
25232;BME280;13176;51.140;6.290;2022-12-07T05:24:11;100888.41;;;7.50;84.92
25232;BME280;13176;51.140;6.290;2022-12-07T05:26:38;101012.34;;;8.22;84.72
25232;BME280;13176;51.140;6.290;2022-12-07T05:29:05;101009.72;;;8.19;85.12
25232;BME280;13176;51.140;6.290;2022-12-07T05:31:32;100943.84;;;7.71;85.83
25232;BME280;13176;51.140;6.290;2022-12-07T05:34:01;100975.91;;;7.95;84.77
25232;BME280;13176;51.140;6.290;2022-12-07T05:36:35;101027.94;;;8.39;84.65
25232;BME280;13176;51.140;6.290;2022-12-07T05:39:02;100942.97;;;7.72;85.72
25232;BME280;13176;51.140;6.290;2022-12-07T05:41:29;100903.13;;;7.54;85.28
25232;BME280;13176;51.140;6.290;2022-12-07T05:44:14;101017.53;;;8.22;84.93
25232;BME280;13176;51.140;6.290;2022-12-07T05:46:40;101012.34;;;8.22;84.96
25232;BME280;13176;51.140;6.290;2022-12-07T05:49:07;101040.06;;;8.28;85.33
25232;BME280;13176;51.140;6.290;2022-12-07T05:51:33;100927.38;;;7.74;85.06
25232;BME280;13176;51.140;6.290;2022-12-07T05:53:59;101025.34;;;8.37;84.54
25232;BME280;13176;51.140;6.290;2022-12-07T05:56:26;100940.38;;;7.77;84.61
25232;BME280;13176;51.140;6.290;2022-12-07T05:58:53;101034.00;;;8.38;84.77
25232;BME280;13176;51.140;6.290;2022-12-07T06:01:38;101042.66;;;8.38;85.02
25232;BME280;13176;51.140;6.290;2022-12-07T06:04:05;101008.00;;;8.18;84.43
25232;BME280;13176;51.140;6.290;2022-12-07T06:06:31;100951.63;;;7.73;85.02
25232;BME280;13176;51.140;6.290;2022-12-07T06:08:58;101011.38;;;7.92;85.67
25232;BME280;13176;51.140;6.290;2022-12-07T06:11:24;100875.34;;;7.15;86.04
25232;BME280;13176;51.140;6.290;2022-12-07T06:14:09;100868.50;;;7.25;85.05
25232;BME280;13176;51.140;6.290;2022-12-07T06:16:35;101010.53;;;8.09;84.70
25232;BME280;13176;51.140;6.290;2022-12-07T06:19:02;101044.41;;;8.36;84.18
25232;BME280;13176;51.140;6.290;2022-12-07T06:21:28;101026.19;;;8.21;84.38
25232;BME280;13176;51.140;6.290;2022-12-07T06:23:54;100968.09;;;7.91;84.28
25232;BME280;13176;51.140;6.290;2022-12-07T06:26:21;101020.09;;;8.12;84.72
25232;BME280;13176;51.140;6.290;2022-12-07T06:28:47;100959.41;;;7.83;84.43
25232;BME280;13176;51.140;6.290;2022-12-07T06:31:14;100951.59;;;7.70;85.00
25232;BME280;13176;51.140;6.290;2022-12-07T06:33:41;100942.94;;;7.68;84.84
25232;BME280;13176;51.140;6.290;2022-12-07T06:36:08;101014.03;;;8.16;84.47
25232;BME280;13176;51.140;6.290;2022-12-07T06:38:35;100949.03;;;7.61;84.62
25232;BME280;13176;51.140;6.290;2022-12-07T06:41:02;100979.31;;;7.74;85.07
25232;BME280;13176;51.140;6.290;2022-12-07T06:43:28;100959.41;;;7.65;85.31
25232;BME280;13176;51.140;6.290;2022-12-07T06:45:55;100929.03;;;7.30;86.09
25232;BME280;13176;51.140;6.290;2022-12-07T06:48:21;100935.97;;;7.37;85.68
25232;BME280;13176;51.140;6.290;2022-12-07T06:50:48;101007.03;;;7.81;85.41
25232;BME280;13176;51.140;6.290;2022-12-07T06:53:20;100984.47;;;7.56;86.02
25232;BME280;13176;51.140;6.290;2022-12-07T06:55:46;101005.28;;;7.68;85.60
25232;BME280;13176;51.140;6.290;2022-12-07T06:58:12;100991.44;;;7.63;84.73
25232;BME280;13176;51.140;6.290;2022-12-07T07:00:39;101027.81;;;7.81;85.07
25232;BME280;13176;51.140;6.290;2022-12-07T07:03:05;101022.56;;;7.66;85.32
25232;BME280;13176;51.140;6.290;2022-12-07T07:05:31;100942.84;;;7.29;84.83
25232;BME280;13176;51.140;6.290;2022-12-07T07:07:58;100953.19;;;7.11;85.95
25232;BME280;13176;51.140;6.290;2022-12-07T07:10:44;101026.03;;;7.63;84.80
25232;BME280;13176;51.140;6.290;2022-12-07T07:13:10;101035.56;;;7.66;85.65
25232;BME280;13176;51.140;6.290;2022-12-07T07:15:38;100941.00;;;6.98;86.12
25232;BME280;13176;51.140;6.290;2022-12-07T07:18:04;101052.88;;;7.64;86.78
25232;BME280;13176;51.140;6.290;2022-12-07T07:20:33;101010.41;;;7.50;86.32
25232;BME280;13176;51.140;6.290;2022-12-07T07:22:59;100954.91;;;7.12;87.74
25232;BME280;13176;51.140;6.290;2022-12-07T07:25:26;101013.84;;;7.43;88.11
25232;BME280;13176;51.140;6.290;2022-12-07T07:27:52;101037.31;;;7.71;87.01
25232;BME280;13176;51.140;6.290;2022-12-07T07:30:19;100947.16;;;7.15;87.35
25232;BME280;13176;51.140;6.290;2022-12-07T07:32:45;101029.53;;;7.73;86.89
25232;BME280;13176;51.140;6.290;2022-12-07T07:35:12;101012.22;;;7.75;86.44
25232;BME280;13176;51.140;6.290;2022-12-07T07:37:40;101045.13;;;7.76;86.75
25232;BME280;13176;51.140;6.290;2022-12-07T07:40:08;100951.50;;;7.22;86.36
25232;BME280;13176;51.140;6.290;2022-12-07T07:42:34;100910.75;;;6.97;86.33
25232;BME280;13176;51.140;6.290;2022-12-07T07:45:01;100934.97;;;6.97;87.19
25232;BME280;13176;51.140;6.290;2022-12-07T07:47:27;101011.22;;;7.35;87.12
25232;BME280;13176;51.140;6.290;2022-12-07T07:49:55;101046.81;;;7.62;86.39
25232;BME280;13176;51.140;6.290;2022-12-07T07:52:21;101047.59;;;7.41;87.70
25232;BME280;13176;51.140;6.290;2022-12-07T07:54:47;101057.19;;;7.68;87.43
25232;BME280;13176;51.140;6.290;2022-12-07T07:57:16;100994.84;;;7.47;86.28
25232;BME280;13176;51.140;6.290;2022-12-07T07:59:42;101001.69;;;7.36;87.40
25232;BME280;13176;51.140;6.290;2022-12-07T08:02:14;101057.25;;;7.77;87.31
25232;BME280;13176;51.140;6.290;2022-12-07T08:04:40;101045.13;;;7.76;86.29
25232;BME280;13176;51.140;6.290;2022-12-07T08:07:07;101045.06;;;7.67;86.53
25232;BME280;13176;51.140;6.290;2022-12-07T08:09:33;100947.97;;;7.08;86.88
25232;BME280;13176;51.140;6.290;2022-12-07T08:11:59;101053.75;;;7.69;86.39
25232;BME280;13176;51.140;6.290;2022-12-07T08:14:26;100944.53;;;7.12;86.57
25232;BME280;13176;51.140;6.290;2022-12-07T08:16:54;101063.31;;;7.80;86.46
25232;BME280;13176;51.140;6.290;2022-12-07T08:19:21;101044.28;;;7.83;86.35
25232;BME280;13176;51.140;6.290;2022-12-07T08:21:47;100976.63;;;7.33;86.74
25232;BME280;13176;51.140;6.290;2022-12-07T08:24:14;101037.31;;;7.64;86.78
25232;BME280;13176;51.140;6.290;2022-12-07T08:26:41;101064.19;;;7.81;86.81
25232;BME280;13176;51.140;6.290;2022-12-07T08:29:08;101067.63;;;7.77;87.18
25232;BME280;13176;51.140;6.290;2022-12-07T08:31:36;100984.31;;;7.14;87.30
25232;BME280;13176;51.140;6.290;2022-12-07T08:34:02;101039.91;;;7.73;85.84
25232;BME280;13176;51.140;6.290;2022-12-07T08:36:29;101029.50;;;7.58;86.47
25232;BME280;13176;51.140;6.290;2022-12-07T08:38:55;101003.44;;;7.37;86.98
25232;BME280;13176;51.140;6.290;2022-12-07T08:41:41;101046.84;;;7.65;86.40
25232;BME280;13176;51.140;6.290;2022-12-07T08:44:08;101081.56;;;7.93;85.87
25232;BME280;13176;51.140;6.290;2022-12-07T08:46:46;101052.91;;;7.74;86.40
25232;BME280;13176;51.140;6.290;2022-12-07T08:49:16;101048.59;;;7.78;86.03
25232;BME280;13176;51.140;6.290;2022-12-07T08:51:44;101053.84;;;7.95;85.64
25232;BME280;13176;51.140;6.290;2022-12-07T08:54:14;101074.63;;;8.07;85.95
25232;BME280;13176;51.140;6.290;2022-12-07T08:56:41;101022.59;;;7.72;86.46
25232;BME280;13176;51.140;6.290;2022-12-07T08:59:09;101044.31;;;8.02;86.21
25232;BME280;13176;51.140;6.290;2022-12-07T09:01:36;101010.53;;;7.94;85.55
25232;BME280;13176;51.140;6.290;2022-12-07T09:04:02;101026.13;;;7.94;85.95
25232;BME280;13176;51.140;6.290;2022-12-07T09:06:28;101077.31;;;8.18;86.22
25232;BME280;13176;51.140;6.290;2022-12-07T09:08:57;101006.19;;;7.74;86.03
25232;BME280;13176;51.140;6.290;2022-12-07T09:11:25;100994.91;;;7.74;86.14
25232;BME280;13176;51.140;6.290;2022-12-07T09:13:54;101055.63;;;8.17;85.85
25232;BME280;13176;51.140;6.290;2022-12-07T09:16:20;101052.19;;;8.21;85.77
25232;BME280;13176;51.140;6.290;2022-12-07T09:18:47;101038.31;;;8.19;85.05
25232;BME280;13176;51.140;6.290;2022-12-07T09:21:13;101071.28;;;8.32;85.73
25232;BME280;13176;51.140;6.290;2022-12-07T09:23:41;101061.72;;;8.36;86.09
25232;BME280;13176;51.140;6.290;2022-12-07T09:26:08;101038.34;;;8.34;85.45
25232;BME280;13176;51.140;6.290;2022-12-07T09:28:37;101078.22;;;8.69;85.05
25232;BME280;13176;51.140;6.290;2022-12-07T09:31:04;101085.13;;;8.76;84.58
25232;BME280;13176;51.140;6.290;2022-12-07T09:33:58;101076.50;;;8.71;84.39
25232;BME280;13176;51.140;6.290;2022-12-07T09:36:25;101067.81;;;8.57;84.06
25232;BME280;13176;51.140;6.290;2022-12-07T09:38:52;101038.34;;;8.28;84.95
25232;BME280;13176;51.140;6.290;2022-12-07T09:41:19;101060.00;;;8.51;85.08
25232;BME280;13176;51.140;6.290;2022-12-07T09:43:47;101070.41;;;8.60;84.74
25232;BME280;13176;51.140;6.290;2022-12-07T09:46:15;101075.56;;;8.23;86.27
25232;BME280;13176;51.140;6.290;2022-12-07T09:48:43;101047.88;;;8.26;85.93
25232;BME280;13176;51.140;6.290;2022-12-07T09:51:16;101068.66;;;8.44;85.68
25232;BME280;13176;51.140;6.290;2022-12-07T09:53:49;101076.47;;;8.56;84.96
25232;BME280;13176;51.140;6.290;2022-12-07T09:56:17;100985.41;;;7.88;85.05
25232;BME280;13176;51.140;6.290;2022-12-07T09:58:45;101049.59;;;8.30;84.70
25232;BME280;13176;51.140;6.290;2022-12-07T10:01:17;101034.88;;;8.23;84.92
25232;BME280;13176;51.140;6.290;2022-12-07T10:03:59;101054.81;;;8.33;85.32
25232;BME280;13176;51.140;6.290;2022-12-07T10:06:27;101068.69;;;8.62;84.28
25232;BME280;13176;51.140;6.290;2022-12-07T10:08:53;100968.94;;;7.71;86.04
25232;BME280;13176;51.140;6.290;2022-12-07T10:11:19;101025.34;;;8.48;85.27
25232;BME280;13176;51.140;6.290;2022-12-07T10:13:48;101076.47;;;8.83;84.13
25232;BME280;13176;51.140;6.290;2022-12-07T10:18:54;101056.44;;;9.15;83.58
25232;BME280;13176;51.140;6.290;2022-12-07T10:21:25;101001.94;;;8.58;83.87
25232;BME280;13176;51.140;6.290;2022-12-07T10:24:00;101051.28;;;9.02;84.27
25232;BME280;13176;51.140;6.290;2022-12-07T10:28:58;101048.63;;;9.30;83.18
25232;BME280;13176;51.140;6.290;2022-12-07T10:31:25;101024.28;;;9.37;82.08
25232;BME280;13176;51.140;6.290;2022-12-07T10:36:39;101036.25;;;9.77;81.11
25232;BME280;13176;51.140;6.290;2022-12-07T10:39:14;101000.78;;;9.56;79.60
25232;BME280;13176;51.140;6.290;2022-12-07T10:44:23;101002.72;;;9.08;81.12
25232;BME280;13176;51.140;6.290;2022-12-07T10:58:28;101015.47;;;9.68;79.42
25232;BME280;13176;51.140;6.290;2022-12-07T11:01:03;100996.41;;;9.54;79.61
25232;BME280;13176;51.140;6.290;2022-12-07T11:03:42;101022.56;;;9.39;79.82
25232;BME280;13176;51.140;6.290;2022-12-07T11:06:30;100962.69;;;9.33;78.90
25232;BME280;13176;51.140;6.290;2022-12-07T11:12:36;101006.94;;;9.36;80.18
25232;BME280;13176;51.140;6.290;2022-12-07T11:15:26;100994.91;;;9.08;80.32
25232;BME280;13176;51.140;6.290;2022-12-07T11:18:09;100970.56;;;9.15;79.53
25232;BME280;13176;51.140;6.290;2022-12-07T11:30:14;100972.91;;;9.66;78.33
25232;BME280;13176;51.140;6.290;2022-12-07T11:32:51;100979.03;;;9.62;77.92
25232;BME280;13176;51.140;6.290;2022-12-07T11:38:17;100937.53;;;9.26;78.18
25232;BME280;13176;51.140;6.290;2022-12-07T11:40:58;100939.22;;;9.37;78.23
25232;BME280;13176;51.140;6.290;2022-12-07T11:46:42;100943.50;;;9.50;78.11
25232;BME280;13176;51.140;6.290;2022-12-07T11:49:19;100951.13;;;9.79;77.75
25232;BME280;13176;51.140;6.290;2022-12-07T11:51:49;100941.75;;;9.49;77.64
25232;BME280;13176;51.140;6.290;2022-12-07T11:54:21;100916.69;;;9.35;77.56
25232;BME280;13176;51.140;6.290;2022-12-07T11:56:50;100914.97;;;9.28;78.15
25232;BME280;13176;51.140;6.290;2022-12-07T11:59:36;100949.50;;;9.64;77.70
25232;BME280;13176;51.140;6.290;2022-12-07T12:02:16;100926.94;;;9.59;76.98
25232;BME280;13176;51.140;6.290;2022-12-07T12:05:20;100933.94;;;9.51;77.38
25232;BME280;13176;51.140;6.290;2022-12-07T12:07:46;100939.84;;;9.78;77.04
25232;BME280;13176;51.140;6.290;2022-12-07T12:13:54;100951.19;;;9.70;77.45
25232;BME280;13176;51.140;6.290;2022-12-07T12:17:07;100935.44;;;9.85;76.66
25232;BME280;13176;51.140;6.290;2022-12-07T12:19:59;100949.25;;;9.96;76.72
25232;BME280;13176;51.140;6.290;2022-12-07T12:22:51;100845.72;;;8.97;78.13
25232;BME280;13176;51.140;6.290;2022-12-07T12:27:53;100888.75;;;9.58;76.79
25232;BME280;13176;51.140;6.290;2022-12-07T12:30:37;100929.59;;;9.51;77.22
25232;BME280;13176;51.140;6.290;2022-12-07T12:33:12;100829.09;;;9.23;77.02
25232;BME280;13176;51.140;6.290;2022-12-07T12:51:44;100839.34;;;10.43;74.07
25232;BME280;13176;51.140;6.290;2022-12-07T12:54:24;100906.72;;;10.85;72.94
25232;BME280;13176;51.140;6.290;2022-12-07T12:59:38;100851.28;;;10.62;71.94
25232;BME280;13176;51.140;6.290;2022-12-07T13:04:52;100891.91;;;10.87;72.17
25232;BME280;13176;51.140;6.290;2022-12-07T13:18:41;100886.19;;;10.54;72.84
25232;BME280;13176;51.140;6.290;2022-12-07T13:26:20;100878.72;;;10.20;73.22
25232;BME280;13176;51.140;6.290;2022-12-07T13:28:47;100875.13;;;10.31;73.06
25232;BME280;13176;51.140;6.290;2022-12-07T13:31:34;100870.53;;;10.55;71.71
25232;BME280;13176;51.140;6.290;2022-12-07T13:34:02;100830.84;;;10.25;72.01
25232;BME280;13176;51.140;6.290;2022-12-07T13:36:36;100825.72;;;10.18;72.45
25232;BME280;13176;51.140;6.290;2022-12-07T13:39:24;100841.22;;;10.29;72.73
25232;BME280;13176;51.140;6.290;2022-12-07T13:41:53;100834.44;;;10.17;73.06
25232;BME280;13176;51.140;6.290;2022-12-07T13:44:21;100844.03;;;10.10;73.71
25232;BME280;13176;51.140;6.290;2022-12-07T13:47:00;100857.03;;;10.15;74.47
25232;BME280;13176;51.140;6.290;2022-12-07T13:49:32;100829.38;;;9.96;75.18
25232;BME280;13176;51.140;6.290;2022-12-07T13:54:51;100842.38;;;10.02;75.37
25232;BME280;13176;51.140;6.290;2022-12-07T13:57:22;100871.84;;;10.08;75.79
25232;BME280;13176;51.140;6.290;2022-12-07T13:59:50;100858.75;;;8.91;79.07
25232;BME280;13176;51.140;6.290;2022-12-07T14:02:35;100856.38;;;8.37;81.39
25232;BME280;13176;51.140;6.290;2022-12-07T14:05:12;100881.53;;;7.88;83.58
25232;BME280;13176;51.140;6.290;2022-12-07T14:10:26;100864.16;;;8.40;83.51
25232;BME280;13176;51.140;6.290;2022-12-07T14:12:53;100832.13;;;8.29;83.25
25232;BME280;13176;51.140;6.290;2022-12-07T14:15:22;100856.31;;;8.52;83.91
25232;BME280;13176;51.140;6.290;2022-12-07T14:17:54;100798.31;;;8.34;83.34
25232;BME280;13176;51.140;6.290;2022-12-07T14:20:40;100832.06;;;8.53;83.89
25232;BME280;13176;51.140;6.290;2022-12-07T14:23:24;100839.75;;;8.76;83.06
25232;BME280;13176;51.140;6.290;2022-12-07T14:25:52;100837.19;;;8.71;84.36
25232;BME280;13176;51.140;6.290;2022-12-07T14:28:27;100836.28;;;8.78;83.28
25232;BME280;13176;51.140;6.290;2022-12-07T14:30:54;100707.50;;;7.93;84.09
25232;BME280;13176;51.140;6.290;2022-12-07T14:33:21;100742.03;;;8.21;83.94
25232;BME280;13176;51.140;6.290;2022-12-07T14:35:49;100755.88;;;8.36;83.45
25232;BME280;13176;51.140;6.290;2022-12-07T14:38:15;100779.25;;;8.38;84.60
25232;BME280;13176;51.140;6.290;2022-12-07T14:40:44;100802.56;;;8.57;84.97
25232;BME280;13176;51.140;6.290;2022-12-07T14:43:12;100812.88;;;8.75;83.94
25232;BME280;13176;51.140;6.290;2022-12-07T14:45:41;100727.31;;;8.12;84.12
25232;BME280;13176;51.140;6.290;2022-12-07T14:48:11;100802.53;;;8.63;84.73
25232;BME280;13176;51.140;6.290;2022-12-07T14:50:58;100798.22;;;8.65;84.49
25232;BME280;13176;51.140;6.290;2022-12-07T14:53:48;100770.53;;;8.54;84.03
25232;BME280;13176;51.140;6.290;2022-12-07T14:56:23;100802.56;;;8.57;84.94
25232;BME280;13176;51.140;6.290;2022-12-07T14:58:49;100793.91;;;8.52;84.58
25232;BME280;13176;51.140;6.290;2022-12-07T15:01:16;100793.94;;;8.46;84.97
25232;BME280;13176;51.140;6.290;2022-12-07T15:03:42;100746.38;;;8.16;85.18
25232;BME280;13176;51.140;6.290;2022-12-07T15:06:14;100807.81;;;8.42;86.11
25232;BME280;13176;51.140;6.290;2022-12-07T15:08:41;100785.34;;;8.29;86.19
25232;BME280;13176;51.140;6.290;2022-12-07T15:11:12;100766.31;;;8.18;85.67
25232;BME280;13176;51.140;6.290;2022-12-07T15:13:39;100735.19;;;8.00;85.31
25232;BME280;13176;51.140;6.290;2022-12-07T15:16:24;100706.66;;;7.83;85.89
25232;BME280;13176;51.140;6.290;2022-12-07T15:18:51;100800.94;;;8.32;85.81
25232;BME280;13176;51.140;6.290;2022-12-07T15:21:37;100731.72;;;7.85;86.01